Airfield :
LOGIN :

Register | Disclaimer

   EN    FR    IT 

 










Legend :    VFR   Marginal VFR   IFR   Intensive IFR   Very Intensive IFR
Visi :
Ceiling :
>= 8 km
>= 3000ft
5 to 8 km
1000 to 3000 ft
1500m to 5 km
500 to 1000 ft
800 to 1500m
200 to 500 ft
< 800m
< 200 ft
Symbols :   Thunderstorms  Fog  Heavy snow  Heavy precipitations  Wind > 20 kt
SIGMETs :     Misc.  Thunderstorms  Icing  Turbulence  Mountain Waves  Volcanic Ashes






- Airport Elevation : 410 ft
- IATA code : AVB


LIPA - Aviano AB Pordenone

CURRENT METAR :
  • 290555Z 03005KT 9999 FEW020 BKN040 05/05 Q1016 RMK OVC VIS MIN 9999 WIND THR05 /////KT WIND THR23 /////KT A3002 BLU

EXPIRED METARs :
  • 290455Z 02006KT 9999 DZ BKN030 05/05 Q1016 RMK BKN VIS MIN 9999 WIND THR05 /////KT WIND THR23 /////KT A3001 BLU
  • 290355Z 36003KT 9999 DZ BKN030 05/05 Q1016 RMK BKN VIS MIN 9999 WIND THR05 /////KT WIND THR23 /////KT A3002 BLU

TAF TAF LIPA
Valid from the 29 at 06:00 until the 29 at 15:00 UTC


290500Z 2906/2915 01005KT 9999 SCT030 BKN080
TEMPO 2906/2912 5000 RA BR BKN030



MET'MAP, your aeronautical weather chart ! - Copyright ORBIFLY December 2007 - Disclaimer

ORBIFLY MET'MAP TEAM :

Programming & Development : Alexandra Zaïnal
Original concept : Baudouin d'Aumeries
Technical & hardware support : Manuel Goepfert
Assistance : Marc-Olivier Méhu




SOURCES & CREDITS :

   NOAA